Benjamin Mena

Scout - Universidad de Chile
23 Jan 2028
Sonntag
Verarbeitung

Persönlichkeit

Anpassungsfähigkeit (18) Ehrgeiz (19) Kontroverse (4) Loyalität (10) Druck (12) Professionalität (12) Fairness (8) Temperament (5)

Profil

Trainerstil Demokratisch
Lizenz Nationale A
Entschlossenheit 6
Menschenführung 9
Motivation 14
Disziplin 9
Arbeitszufriedenheit
100%
Ermüdung
0%
Rolle Scout
Gehalt 31.3K p/W
Vertrag 14.03.2028

Leistung

Verhalten Gut
Trainingseffektivität
51%
Spielerentwicklung
70%
Verletzungsprävention
30%
Taktische Umsetzung
30%

Letzte Ereignisse

Sprach sich gegen ein Transferziel aus jetzt
Vertragsverhandlung begonnen jetzt
Nimmt an Fortbildung teil jetzt
Vertragsverhandlung begonnen jetzt
Nimmt an Fortbildung teil jetzt
Vertragsverhandlung begonnen jetzt
Nimmt an Fortbildung teil jetzt
Vertragsverhandlung begonnen jetzt

Aktuell beobachtet

129
Spieler Verein Status Fähigkeit Vertrauen Beobachtet Zuletzt beobachtet Letzte Stimme
Finn Jeltsch VfB Stuttgart Aktiv 141 / 149 40% 3 21.01.2028 -
Adam Aznou Everton Aktiv 123 / 144 40% 1 21.01.2028 -
Edvard Pettersen Sandefjord Aktiv 108 / 113 40% 1 21.01.2028 -
Marlon Torres America de Cali Aktiv 119 / 123 40% 1 17.01.2028 -
Iván Scarpeta Santa Fe Aktiv 114 / 110 40% 1 17.01.2028 -
Aarón Quiros Vélez Aktiv 125 / 125 40% 1 17.01.2028 -
Sebastián Caballero Barranquilla Aktiv 99 / 104 40% 2 16.01.2028 -
Alpha Touré FC Metz Aktiv 117 / 134 40% 3 16.01.2028 -
Matteo Palma Udinese Aktiv 129 / 127 40% 1 16.01.2028 -
Josh King Newcastle United Aktiv 137 / 146 40% 3 14.01.2028 -
Trey Nyoni Rotherham United Aktiv 141 / 142 40% 2 14.01.2028 -
Juan Manuel Villalba Tigre Aktiv 120 / 130 40% 2 14.01.2028 -
Chris Rigg Sunderland Aktiv 127 / 140 40% 1 13.01.2028 -
Daniel Banjaqui Benfica Aktiv 118 / 139 40% 1 13.01.2028 -
Omar Bertel America de Cali Aktiv 121 / 113 40% 1 11.01.2028 -
Mateo Garavito Deportivo Pasto Aktiv 119 / 117 40% 1 11.01.2028 -
Jorman Campuzano Atletico Nacional Aktiv 116 / 116 40% 1 11.01.2028 -
Jermein Peña Junior Aktiv 129 / 133 40% 1 10.01.2028 -
Lucas Carrizo Newell's Old Boys Aktiv 122 / 127 40% 1 10.01.2028 -
Alejandro Molina Tristán Suárez Aktiv 116 / 118 40% 1 10.01.2028 -
Josh Acheampong Everton Aktiv 153 / 143 40% 3 09.01.2028 -
Ivan Giraldo Valencia Aktiv 131 / 123 40% 1 09.01.2028 -
Matias Siltanen Malmo FF Aktiv 117 / 139 40% 2 08.01.2028 -
Lucas Bergvall Tottenham Abgelehnt 141 / 165 40% 4 06.01.2028 Ablehnen
Germán Barbas Burgos Aktiv 111 / 117 40% 3 06.01.2028 -
Azizbek To'lqinbekov Bunyodkor Aktiv 88 / 107 40% 1 05.01.2028 -
Matvey Bardachev Zenit Aktiv 116 / 123 40% 2 04.01.2028 -
Riquelme Thompson-Jones Accrington Stanley Aktiv 100 / 128 40% 1 03.01.2028 -
Yassir Zabiri Stade Rennais Aktiv 132 / 145 40% 1 30.11.2027 -
Cheikh Sabaly Vancouver Whitecaps Aktiv 133 / 132 40% 1 30.11.2027 -
Mateo Cassierra Atlético Mineiro Aktiv 130 / 132 40% 1 30.11.2027 -
Tommaso Cecotti Carpi Aktiv 103 / 107 40% 2 25.05.2027 -
Victor Hernandez Santa Fe Aktiv 117 / 127 40% 2 25.05.2027 -
Alexandro Maidana Eibar Aktiv 124 / 117 40% 2 24.05.2027 -
Miguel Figueiredo Benfica Aktiv 116 / 121 40% 2 24.05.2027 -
Zane Albarus Shrewsbury Town Aktiv 83 / 88 40% 1 24.05.2027 -
Charlie Gray Fleetwood Town Aktiv 89 / 94 40% 5 20.05.2027 -
Riley Owen Stevenage Aktiv 111 / 108 40% 2 20.05.2027 -
Kiani Inge Groningen Aktiv 108 / 120 40% 1 20.05.2027 -
Leandro Martins Benfica Aktiv 100 / 101 40% 2 14.05.2027 -
Agustín De la Cuesta Racing Aktiv 106 / 115 40% 3 14.05.2027 -
Martim Cunha Porto Aktiv 109 / 107 40% 2 08.05.2027 -
Gonçalo Oliveira Benfica Aktiv 102 / 117 40% 1 08.05.2027 -
Eliás Montiel Borussia Dortmund Aktiv 134 / 126 40% 1 08.05.2027 -
Pedro Vian Seewald Dolomiti Bellunesi Aktiv 93 / 90 40% 1 07.05.2027 -
Rhys Chadwick AFC Wimbledon Aktiv 96 / 96 40% 2 04.05.2027 -
Bongani Jali Free State Stars Aktiv 104 / 95 40% 3 04.05.2027 -
Pietro Reggiori Pro Patria Aktiv 91 / 89 40% 2 01.05.2027 -
Maldini Kacurri Grimsby Town Aktiv 82 / 98 40% 1 01.05.2027 -
Riyad Idrissi Cagliari Aktiv 119 / 138 40% 1 01.05.2027 -
Kazunari Kita Real Sociedad Aktiv 108 / 95 40% 1 23.04.2027 -
Ezra Mayers West Ham United Aktiv 116 / 114 40% 1 23.04.2027 -
Samuele di Benedetto Twente Aktiv 118 / 130 40% 2 22.04.2027 -
Mpho Khethang FC Diarra Aktiv 86 / 89 40% 1 21.04.2027 -
Jake Batty Plymouth Argyle Aktiv 92 / 102 40% 1 21.04.2027 -
Jenson Jones Walsall Aktiv 103 / 101 40% 1 19.04.2027 -
Jobe Bellingham Borussia Dortmund Aktiv 127 / 135 40% 1 19.04.2027 -
Tiago Freitas Benfica Aktiv 99 / 112 40% 1 13.04.2027 -
Bence Dárdai VfL Wolfsburg Aktiv 128 / 122 40% 1 13.04.2027 -
Jan Bürger Northampton Town Aktiv 118 / 116 40% 2 11.04.2027 -
David Ozoh Derby County Aktiv 127 / 130 40% 1 07.04.2027 -
Matvey Kislyak CSKA Moscow Aktiv 140 / 151 40% 1 07.04.2027 -
Lucas Agazzi Villarreal Aktiv 112 / 129 40% 2 02.04.2027 -
Caleb Yirenkyi Coventry City Aktiv 140 / 128 40% 2 30.03.2027 -
Salvador Blopá Sporting CP Aktiv 111 / 117 40% 1 30.03.2027 -
Moncef Zekri Sporting CP Aktiv 95 / 100 40% 1 29.03.2027 -
Obed Vargas Atlético Madrid Aktiv 135 / 117 40% 1 26.03.2027 -
James Dornelly Peterborough United Aktiv 107 / 108 40% 1 18.03.2027 -
Rivaldo Mkhize Black Aces Aktiv 94 / 97 40% 1 18.03.2027 -
Sabil Hansen Randers Aktiv 105 / 115 40% 1 08.03.2027 -
Bernardo Lima Porto Aktiv 104 / 108 40% 1 01.03.2027 -
Santiago Longo Belgrano Aktiv 122 / 120 40% 1 30.11.2026 -
Sam Greenwood Bristol City Aktiv 117 / 121 40% 1 29.11.2026 -
Matías Tagliamonte Racing Club Aktiv 124 / 113 40% 1 28.11.2026 -
Rodrigo Morínigo Debrecen Aktiv 108 / 115 40% 1 28.11.2026 -
José Florentín Independiente Rivadavia Aktiv 125 / 119 40% 1 26.11.2026 -
Franco Ibarra Rosario Central Aktiv 128 / 129 40% 1 26.11.2026 -
Arijanet Murić Sassuolo Aktiv 152 / 147 40% 1 25.11.2026 -
Emiliano González Almagro Aktiv 123 / 119 40% 1 25.11.2026 -
Esteban Obregón Montevideo City Torque Aktiv 108 / 113 40% 2 24.11.2026 -
Luciano Pereyra AEL Larisa Aktiv 84 / 102 40% 1 24.11.2026 -
Peter Valjent FK Senica Aktiv 113 / 132 40% 1 22.11.2026 -
Luciano Cosentino Wanderers Aktiv 124 / 122 40% 1 20.11.2026 -
Manuel Roffo Hajduk Split Aktiv 137 / 137 40% 2 16.11.2026 -
Paik Seung-Ho Birmingham Aktiv 139 / 128 40% 1 16.11.2026 -
Renato Solís Sporting Cristal Aktiv 117 / 115 40% 1 16.11.2026 -
Justo Giani Umraniyespor Aktiv 124 / 127 40% 1 13.11.2026 -
Patrick Schulte Columbus Crew Aktiv 116 / 123 40% 2 10.11.2026 -
Viktor Johansson Stoke City Aktiv 126 / 133 40% 1 08.11.2026 -
Michael Cooper Sheffield United Aktiv 129 / 143 40% 1 07.11.2026 -
Sergi Palencia Los Angeles Football Club Aktiv 129 / 125 40% 1 07.11.2026 -
Teden Mengi Luton Town Aktiv 117 / 107 40% 1 06.11.2026 -
Dale Taylor Blackpool Aktiv 112 / 129 40% 1 05.11.2026 -
Jacques Ekomié Wrexham Aktiv 135 / 132 40% 1 03.11.2026 -
Yhormar Hurtado Lechia Aktiv 133 / 122 40% 1 02.11.2026 -
Martin Jedlička Banik Ostrava Aktiv 141 / 120 40% 1 01.11.2026 -
Ştefan Târnovanu CFR Cluj Aktiv 118 / 135 40% 1 31.10.2026 -
Japhet Sery Larsen Philadelphia Union Aktiv 117 / 115 40% 1 30.10.2026 -
Sergio Reguilón Inter Miami CF Aktiv 142 / 129 40% 1 30.10.2026 -
Mads Hedenstad AGF Aktiv 129 / 109 40% 1 30.10.2026 -
Matevž Vidovšek Olimpija Ljubljana Aktiv 108 / 118 40% 1 28.10.2026 -
Rubén Blanco Yokohama F. Marinos Aktiv 117 / 131 40% 1 27.10.2026 -
Erik Botheim Viking Aktiv 118 / 124 40% 1 27.10.2026 -
Wendel Zenit Aktiv 156 / 132 40% 1 24.10.2026 -
Edu Expósito Espanyol Aktiv 152 / 134 40% 1 23.10.2026 -
Facundo Miño Deportivo Riestra Aktiv 114 / 121 40% 1 23.10.2026 -
Gaspar Duarte Rosario Central Aktiv 123 / 112 40% 1 23.10.2026 -
Yuta Goke Vissel Kobe Aktiv 137 / 118 40% 1 22.10.2026 -
Santiago Rojas Nacional Aktiv 113 / 112 40% 1 20.10.2026 -
Alexandr Maximenko Spartak Moscow Aktiv 120 / 135 40% 1 18.10.2026 -
Sławomir Abramowicz Jagiellonia Aktiv 130 / 127 40% 1 17.10.2026 -
Tomoki Hayakawa Kashima Antlers Aktiv 142 / 150 40% 1 15.10.2026 -
Paul Izzo Randers Aktiv 124 / 125 40% 1 11.10.2026 -
Luis Caicedo Spartak 1918 Aktiv 77 / 106 40% 1 10.10.2026 -
Rhian Brewster Oleksandriya Aktiv 129 / 129 40% 1 10.10.2026 -
Kai Wagner Philadelphia Union Aktiv 135 / 129 40% 1 09.10.2026 -
Stijn Spierings Real Salt Lake Aktiv 121 / 125 40% 1 09.10.2026 -
Fabricio Domínguez Cerro Porteno Aktiv 118 / 125 40% 1 07.10.2026 -
Keisuke Osako Sanfrecce Hiroshima Aktiv 140 / 144 40% 1 05.10.2026 -
Patrick Pentz Brondby Aktiv 140 / 133 40% 1 01.10.2026 -
Nikita Haikin Bodo/Glimt Aktiv 131 / 147 40% 1 01.10.2026 -
Roman Celentano FC Cincinnati Aktiv 116 / 109 40% 1 29.09.2026 -
Williams Mabunda Ajax Cape Town Aktiv 101 / 103 40% 1 25.09.2026 -
Anthony Racioppi Sion Aktiv 124 / 116 40% 1 25.09.2026 -
Alexander Nübel Besiktas Aktiv 138 / 155 40% 1 07.09.2026 -
Erison Kawasaki Frontale Aktiv 133 / 134 40% 1 03.08.2026 -
Germán Berterame Inter Miami CF Abgelehnt 143 / 132 40% 1 03.08.2026 Mehr Infos nötig
Mateu Morey Girona Aktiv 135 / 134 40% 1 01.08.2026 -
Juan Berrocal Málaga Aktiv 124 / 133 40% 1 01.08.2026 -